sensor_id;sensor_type;location;lat;lon;timestamp;pressure;altitude;pressure_sealevel;temperature;humidity
10145;BME280;5113;41.822;23.564;2023-11-18T00:02:48;-11249.50;;;11.39;100.00
10145;BME280;5113;41.822;23.564;2023-11-18T00:05:54;-11229.09;;;10.66;100.00
10145;BME280;5113;41.822;23.564;2023-11-18T00:09:01;-11224.88;;;10.50;100.00
10145;BME280;5113;41.822;23.564;2023-11-18T00:12:09;-11240.06;;;11.05;100.00
10145;BME280;5113;41.822;23.564;2023-11-18T00:15:16;-11238.38;;;10.99;100.00
10145;BME280;5113;41.822;23.564;2023-11-18T00:18:22;-11238.38;;;10.99;100.00
10145;BME280;5113;41.822;23.564;2023-11-18T00:21:29;-11227.69;;;10.61;100.00
10145;BME280;5113;41.822;23.564;2023-11-18T00:24:36;-11228.81;;;10.65;100.00
10145;BME280;5113;41.822;23.564;2023-11-18T00:27:44;-11220.94;;;10.36;100.00
10145;BME280;5113;41.822;23.564;2023-11-18T00:30:50;-11243.19;;;11.16;100.00
10145;BME280;5113;41.822;23.564;2023-11-18T00:33:57;-11211.81;;;10.03;100.00
10145;BME280;5113;41.822;23.564;2023-11-18T00:37:04;-11209.13;;;9.93;100.00
10145;BME280;5113;41.822;23.564;2023-11-18T00:40:12;-11206.75;;;9.85;100.00
10145;BME280;5113;41.822;23.564;2023-11-18T00:43:20;-11184.81;;;9.06;100.00
10145;BME280;5113;41.822;23.564;2023-11-18T00:46:27;-11186.06;;;9.10;100.00
10145;BME280;5113;41.822;23.564;2023-11-18T00:49:34;-11184.09;;;9.03;100.00
10145;BME280;5113;41.822;23.564;2023-11-18T00:52:41;-11183.69;;;9.02;100.00
10145;BME280;5113;41.822;23.564;2023-11-18T00:55:48;-11181.56;;;8.94;100.00
10145;BME280;5113;41.822;23.564;2023-11-18T00:58:56;-11183.97;;;9.03;100.00
10145;BME280;5113;41.822;23.564;2023-11-18T01:02:03;-11170.91;;;8.55;100.00
10145;BME280;5113;41.822;23.564;2023-11-18T01:05:10;-11181.56;;;8.94;100.00
10145;BME280;5113;41.822;23.564;2023-11-18T01:08:18;-11179.88;;;8.88;100.00
10145;BME280;5113;41.822;23.564;2023-11-18T01:11:25;-11181.44;;;8.93;100.00
10145;BME280;5113;41.822;23.564;2023-11-18T01:14:33;-11175.66;;;8.73;100.00
10145;BME280;5113;41.822;23.564;2023-11-18T01:17:40;-11161.63;;;8.22;100.00
10145;BME280;5113;41.822;23.564;2023-11-18T01:20:47;-11175.09;;;8.71;100.00
10145;BME280;5113;41.822;23.564;2023-11-18T01:23:53;-11175.94;;;8.74;99.27
10145;BME280;5113;41.822;23.564;2023-11-18T01:27:00;-11169.50;;;8.50;99.72
10145;BME280;5113;41.822;23.564;2023-11-18T01:30:09;-11171.88;;;8.59;98.49
10145;BME280;5113;41.822;23.564;2023-11-18T01:33:16;-11181.84;;;8.95;98.60
10145;BME280;5113;41.822;23.564;2023-11-18T01:36:23;-11185.50;;;9.08;99.65
10145;BME280;5113;41.822;23.564;2023-11-18T01:39:29;-11183.25;;;9.00;97.50
10145;BME280;5113;41.822;23.564;2023-11-18T01:42:36;-11172.72;;;8.62;99.07
10145;BME280;5113;41.822;23.564;2023-11-18T01:45:44;-11166.69;;;8.40;99.90
10145;BME280;5113;41.822;23.564;2023-11-18T01:48:51;-11166.53;;;8.40;98.78
10145;BME280;5113;41.822;23.564;2023-11-18T01:51:58;-11172.31;;;8.60;97.98
10145;BME280;5113;41.822;23.564;2023-11-18T01:55:06;-11165.97;;;8.38;100.00
10145;BME280;5113;41.822;23.564;2023-11-18T01:58:13;-11156.84;;;8.05;97.46
10145;BME280;5113;41.822;23.564;2023-11-18T02:01:27;-11152.91;;;7.90;97.68
10145;BME280;5113;41.822;23.564;2023-11-18T02:04:35;-11171.47;;;8.57;95.72
10145;BME280;5113;41.822;23.564;2023-11-18T02:07:43;-11158.94;;;8.12;96.71
10145;BME280;5113;41.822;23.564;2023-11-18T02:10:56;-11164.44;;;8.32;94.46
10145;BME280;5113;41.822;23.564;2023-11-18T02:14:04;-11175.53;;;8.72;91.22
10145;BME280;5113;41.822;23.564;2023-11-18T02:17:18;-11179.31;;;8.86;91.11
10145;BME280;5113;41.822;23.564;2023-11-18T02:20:30;-11170.34;;;8.53;90.90
10145;BME280;5113;41.822;23.564;2023-11-18T02:23:37;-11158.81;;;8.12;91.98
10145;BME280;5113;41.822;23.564;2023-11-18T02:26:45;-11168.50;;;8.47;90.08
10145;BME280;5113;41.822;23.564;2023-11-18T02:29:51;-11177.06;;;8.78;88.07
10145;BME280;5113;41.822;23.564;2023-11-18T02:33:00;-11173.16;;;8.64;86.77
10145;BME280;5113;41.822;23.564;2023-11-18T02:36:15;-11171.75;;;8.58;86.46
10145;BME280;5113;41.822;23.564;2023-11-18T02:39:29;-11176.78;;;8.77;88.33
10145;BME280;5113;41.822;23.564;2023-11-18T02:42:38;-11167.25;;;8.42;88.19
10145;BME280;5113;41.822;23.564;2023-11-18T02:45:45;-11164.72;;;8.33;85.96
10145;BME280;5113;41.822;23.564;2023-11-18T02:48:51;-11156.97;;;8.05;87.66
10145;BME280;5113;41.822;23.564;2023-11-18T02:51:59;-11161.91;;;8.23;90.49
10145;BME280;5113;41.822;23.564;2023-11-18T02:55:06;-11152.91;;;7.90;89.86
10145;BME280;5113;41.822;23.564;2023-11-18T02:58:15;-11149.53;;;7.78;89.23
10145;BME280;5113;41.822;23.564;2023-11-18T03:01:23;-11154.72;;;7.97;89.21
10145;BME280;5113;41.822;23.564;2023-11-18T03:04:30;-11179.03;;;8.85;85.05
10145;BME280;5113;41.822;23.564;2023-11-18T03:07:36;-11147.28;;;7.70;88.59
10145;BME280;5113;41.822;23.564;2023-11-18T03:10:43;-11168.09;;;8.45;85.30
10145;BME280;5113;41.822;23.564;2023-11-18T03:13:51;-11165.56;;;8.36;84.64
10145;BME280;5113;41.822;23.564;2023-11-18T03:16:58;-11150.38;;;7.81;87.76
10145;BME280;5113;41.822;23.564;2023-11-18T03:20:05;-11150.66;;;7.82;88.45
10145;BME280;5113;41.822;23.564;2023-11-18T03:23:17;-11157.25;;;8.06;89.27
10145;BME280;5113;41.822;23.564;2023-11-18T03:26:23;-11139.13;;;7.41;88.72
10145;BME280;5113;41.822;23.564;2023-11-18T03:29:32;-11158.25;;;8.10;90.66
10145;BME280;5113;41.822;23.564;2023-11-18T03:32:39;-11157.69;;;8.08;88.23
10145;BME280;5113;41.822;23.564;2023-11-18T03:35:46;-11153.03;;;7.91;87.31
10145;BME280;5113;41.822;23.564;2023-11-18T03:38:53;-11149.38;;;7.78;86.12
10145;BME280;5113;41.822;23.564;2023-11-18T03:42:00;-11141.53;;;7.49;84.56
10145;BME280;5113;41.822;23.564;2023-11-18T03:45:09;-11138.16;;;7.37;85.03
10145;BME280;5113;41.822;23.564;2023-11-18T03:48:16;-11128.03;;;7.01;84.94
10145;BME280;5113;41.822;23.564;2023-11-18T03:51:23;-11139.41;;;7.42;83.83
10145;BME280;5113;41.822;23.564;2023-11-18T03:54:30;-11161.75;;;8.22;79.96
10145;BME280;5113;41.822;23.564;2023-11-18T03:57:36;-11147.41;;;7.71;82.36
10145;BME280;5113;41.822;23.564;2023-11-18T04:00:44;-11136.03;;;7.29;81.96
10145;BME280;5113;41.822;23.564;2023-11-18T04:03:51;-11136.31;;;7.31;82.45
10145;BME280;5113;41.822;23.564;2023-11-18T04:06:58;-11135.34;;;7.27;83.72
10145;BME280;5113;41.822;23.564;2023-11-18T04:10:07;-11135.34;;;7.27;84.44
10145;BME280;5113;41.822;23.564;2023-11-18T04:13:15;-11125.09;;;6.90;85.87
10145;BME280;5113;41.822;23.564;2023-11-18T04:16:24;-11136.03;;;7.29;85.46
10145;BME280;5113;41.822;23.564;2023-11-18T04:19:31;-11132.09;;;7.15;85.03
10145;BME280;5113;41.822;23.564;2023-11-18T04:22:56;-11116.53;;;6.59;85.96
10145;BME280;5113;41.822;23.564;2023-11-18T04:26:02;-11118.63;;;6.67;87.36
10145;BME280;5113;41.822;23.564;2023-11-18T04:29:10;-11119.47;;;6.70;85.02
10145;BME280;5113;41.822;23.564;2023-11-18T04:32:18;-11119.75;;;6.71;85.80
10145;BME280;5113;41.822;23.564;2023-11-18T04:35:24;-11120.03;;;6.72;84.26
10145;BME280;5113;41.822;23.564;2023-11-18T04:38:31;-11125.38;;;6.91;83.86
10145;BME280;5113;41.822;23.564;2023-11-18T04:41:38;-11117.09;;;6.61;84.01
10145;BME280;5113;41.822;23.564;2023-11-18T04:44:45;-11107.13;;;6.25;83.18
10145;BME280;5113;41.822;23.564;2023-11-18T04:47:53;-11122.00;;;6.79;81.87
10145;BME280;5113;41.822;23.564;2023-11-18T04:50:59;-11120.03;;;6.72;81.58
10145;BME280;5113;41.822;23.564;2023-11-18T04:54:06;-11118.19;;;6.65;80.50
10145;BME280;5113;41.822;23.564;2023-11-18T04:57:13;-11113.00;;;6.46;80.69
10145;BME280;5113;41.822;23.564;2023-11-18T05:00:20;-11114.69;;;6.52;79.80
10145;BME280;5113;41.822;23.564;2023-11-18T05:03:28;-11121.44;;;6.77;79.69
10145;BME280;5113;41.822;23.564;2023-11-18T05:06:35;-11114.28;;;6.51;79.91
10145;BME280;5113;41.822;23.564;2023-11-18T05:09:42;-11110.47;;;6.37;79.89
10145;BME280;5113;41.822;23.564;2023-11-18T05:12:49;-11096.44;;;5.86;79.60
10145;BME280;5113;41.822;23.564;2023-11-18T05:16:01;-11112.72;;;6.45;79.33
10145;BME280;5113;41.822;23.564;2023-11-18T05:19:10;-11116.38;;;6.58;78.67
10145;BME280;5113;41.822;23.564;2023-11-18T05:22:17;-11107.41;;;6.26;77.82
10145;BME280;5113;41.822;23.564;2023-11-18T05:25:23;-11106.41;;;6.22;77.68
10145;BME280;5113;41.822;23.564;2023-11-18T05:28:30;-11099.53;;;5.97;77.38
10145;BME280;5113;41.822;23.564;2023-11-18T05:31:37;-11102.91;;;6.10;77.21
10145;BME280;5113;41.822;23.564;2023-11-18T05:34:46;-11104.88;;;6.17;75.98
10145;BME280;5113;41.822;23.564;2023-11-18T05:37:52;-11103.19;;;6.11;76.83
10145;BME280;5113;41.822;23.564;2023-11-18T05:40:59;-11117.22;;;6.61;78.46
10145;BME280;5113;41.822;23.564;2023-11-18T05:44:07;-11103.47;;;6.12;77.88
10145;BME280;5113;41.822;23.564;2023-11-18T05:47:17;-11110.34;;;6.37;77.20
10145;BME280;5113;41.822;23.564;2023-11-18T05:50:25;-11114.69;;;6.52;76.86
10145;BME280;5113;41.822;23.564;2023-11-18T05:53:32;-11109.06;;;6.32;77.27
10145;BME280;5113;41.822;23.564;2023-11-18T05:56:39;-11100.66;;;6.02;77.79
10145;BME280;5113;41.822;23.564;2023-11-18T05:59:46;-11112.88;;;6.46;77.13
10145;BME280;5113;41.822;23.564;2023-11-18T06:02:53;-11100.78;;;6.02;76.90
10145;BME280;5113;41.822;23.564;2023-11-18T06:06:03;-11098.69;;;5.94;77.04
10145;BME280;5113;41.822;23.564;2023-11-18T06:09:11;-11082.94;;;5.38;79.06
10145;BME280;5113;41.822;23.564;2023-11-18T06:12:26;-11084.78;;;5.44;80.60
10145;BME280;5113;41.822;23.564;2023-11-18T06:15:33;-11078.19;;;5.20;82.09
10145;BME280;5113;41.822;23.564;2023-11-18T06:18:42;-11073.00;;;5.02;83.31
10145;BME280;5113;41.822;23.564;2023-11-18T06:21:51;-11079.16;;;5.24;82.45
10145;BME280;5113;41.822;23.564;2023-11-18T06:24:58;-11075.66;;;5.11;84.40
10145;BME280;5113;41.822;23.564;2023-11-18T06:28:04;-11075.81;;;5.12;83.58
10145;BME280;5113;41.822;23.564;2023-11-18T06:31:13;-11085.75;;;5.48;83.13
10145;BME280;5113;41.822;23.564;2023-11-18T06:34:19;-11090.25;;;5.64;81.78
10145;BME280;5113;41.822;23.564;2023-11-18T06:37:33;-11086.31;;;5.50;80.33
10145;BME280;5113;41.822;23.564;2023-11-18T06:40:39;-11077.63;;;5.18;81.35
10145;BME280;5113;41.822;23.564;2023-11-18T06:43:46;-11094.19;;;5.78;78.54
10145;BME280;5113;41.822;23.564;2023-11-18T06:47:03;-11100.09;;;6.00;77.92
10145;BME280;5113;41.822;23.564;2023-11-18T06:50:11;-11104.59;;;6.16;77.08
10145;BME280;5113;41.822;23.564;2023-11-18T06:53:21;-11106.00;;;6.21;76.18
10145;BME280;5113;41.822;23.564;2023-11-18T06:56:27;-11079.31;;;5.24;76.91
10145;BME280;5113;41.822;23.564;2023-11-18T06:59:35;-11096.56;;;5.87;75.06
10145;BME280;5113;41.822;23.564;2023-11-18T07:02:42;-11094.47;;;5.79;74.05
10145;BME280;5113;41.822;23.564;2023-11-18T07:05:48;-11102.34;;;6.08;73.32
10145;BME280;5113;41.822;23.564;2023-11-18T07:08:57;-11105.44;;;6.19;74.20
10145;BME280;5113;41.822;23.564;2023-11-18T07:12:06;-11120.59;;;6.74;72.31
10145;BME280;5113;41.822;23.564;2023-11-18T07:15:13;-11122.56;;;6.81;71.64
10145;BME280;5113;41.822;23.564;2023-11-18T07:18:21;-11104.44;;;6.15;70.23
10145;BME280;5113;41.822;23.564;2023-11-18T07:21:28;-11113.84;;;6.49;70.43
10145;BME280;5113;41.822;23.564;2023-11-18T07:24:36;-11110.19;;;6.36;70.47
10145;BME280;5113;41.822;23.564;2023-11-18T07:27:43;-11115.81;;;6.56;69.19
10145;BME280;5113;41.822;23.564;2023-11-18T07:30:50;-11121.28;;;6.76;68.44
10145;BME280;5113;41.822;23.564;2023-11-18T07:33:57;-11124.09;;;6.86;67.00
10145;BME280;5113;41.822;23.564;2023-11-18T07:37:04;-11122.41;;;6.80;66.77
10145;BME280;5113;41.822;23.564;2023-11-18T07:40:15;-11120.88;;;6.75;65.07
10145;BME280;5113;41.822;23.564;2023-11-18T07:43:27;-11125.38;;;6.91;65.96
10145;BME280;5113;41.822;23.564;2023-11-18T07:46:36;-11125.09;;;6.90;65.23
10145;BME280;5113;41.822;23.564;2023-11-18T07:49:43;-11118.63;;;6.67;65.25
10145;BME280;5113;41.822;23.564;2023-11-18T07:52:50;-11138.00;;;7.37;64.49
10145;BME280;5113;41.822;23.564;2023-11-18T07:55:58;-11117.78;;;6.63;65.06
10145;BME280;5113;41.822;23.564;2023-11-18T07:59:09;-11131.97;;;7.15;64.71
10145;BME280;5113;41.822;23.564;2023-11-18T08:02:21;-11116.81;;;6.60;64.46
10145;BME280;5113;41.822;23.564;2023-11-18T08:05:28;-11131.53;;;7.13;63.18
10145;BME280;5113;41.822;23.564;2023-11-18T08:08:37;-11126.22;;;6.94;63.92
10145;BME280;5113;41.822;23.564;2023-11-18T08:11:45;-11132.09;;;7.15;63.66
10145;BME280;5113;41.822;23.564;2023-11-18T08:14:52;-11133.94;;;7.22;62.47
10145;BME280;5113;41.822;23.564;2023-11-18T08:17:58;-11122.00;;;6.79;62.09
10145;BME280;5113;41.822;23.564;2023-11-18T08:21:06;-11131.53;;;7.13;62.29
10145;BME280;5113;41.822;23.564;2023-11-18T08:24:12;-11133.94;;;7.22;61.13
10145;BME280;5113;41.822;23.564;2023-11-18T08:27:21;-11136.88;;;7.33;60.65
10145;BME280;5113;41.822;23.564;2023-11-18T08:30:28;-11132.09;;;7.15;60.27
10145;BME280;5113;41.822;23.564;2023-11-18T08:33:34;-11126.78;;;6.96;60.59
10145;BME280;5113;41.822;23.564;2023-11-18T08:36:41;-11127.91;;;7.00;60.00
10145;BME280;5113;41.822;23.564;2023-11-18T08:39:48;-11141.53;;;7.49;59.21
10145;BME280;5113;41.822;23.564;2023-11-18T08:42:56;-11120.88;;;6.75;59.57
10145;BME280;5113;41.822;23.564;2023-11-18T08:46:09;-11147.56;;;7.71;59.17
10145;BME280;5113;41.822;23.564;2023-11-18T08:49:18;-11137.88;;;7.36;59.41
10145;BME280;5113;41.822;23.564;2023-11-18T08:52:26;-11130.56;;;7.10;58.34
10145;BME280;5113;41.822;23.564;2023-11-18T08:55:33;-11130.84;;;7.11;58.74
10145;BME280;5113;41.822;23.564;2023-11-18T08:58:49;-11142.09;;;7.51;58.70
10145;BME280;5113;41.822;23.564;2023-11-18T09:01:59;-11122.00;;;6.79;58.52
10145;BME280;5113;41.822;23.564;2023-11-18T09:05:11;-11130.13;;;7.08;59.33
10145;BME280;5113;41.822;23.564;2023-11-18T09:08:18;-11126.78;;;6.96;59.29
10145;BME280;5113;41.822;23.564;2023-11-18T09:11:26;-11146.16;;;7.66;57.79
10145;BME280;5113;41.822;23.564;2023-11-18T09:14:41;-11142.38;;;7.52;57.19
10145;BME280;5113;41.822;23.564;2023-11-18T09:17:47;-11135.19;;;7.26;57.33
10145;BME280;5113;41.822;23.564;2023-11-18T09:20:54;-11140.53;;;7.46;57.00
10145;BME280;5113;41.822;23.564;2023-11-18T09:24:01;-11136.31;;;7.31;56.78
10145;BME280;5113;41.822;23.564;2023-11-18T09:27:10;-11149.53;;;7.78;55.61
10145;BME280;5113;41.822;23.564;2023-11-18T09:30:19;-11147.56;;;7.71;55.44
10145;BME280;5113;41.822;23.564;2023-11-18T09:33:26;-11135.75;;;7.28;56.15
10145;BME280;5113;41.822;23.564;2023-11-18T09:36:37;-11140.81;;;7.47;56.64
10145;BME280;5113;41.822;23.564;2023-11-18T09:39:44;-11124.25;;;6.87;56.70
10145;BME280;5113;41.822;23.564;2023-11-18T09:42:51;-11145.59;;;7.64;56.51
10145;BME280;5113;41.822;23.564;2023-11-18T09:46:04;-11129.03;;;7.04;56.63
10145;BME280;5113;41.822;23.564;2023-11-18T09:49:24;-11134.06;;;7.22;56.67
10145;BME280;5113;41.822;23.564;2023-11-18T09:52:45;-11115.69;;;6.56;57.34
10145;BME280;5113;41.822;23.564;2023-11-18T09:56:02;-11102.91;;;6.10;57.31
10145;BME280;5113;41.822;23.564;2023-11-18T09:59:18;-11119.19;;;6.69;55.91
10145;BME280;5113;41.822;23.564;2023-11-18T10:02:30;-11145.88;;;7.65;55.15
10145;BME280;5113;41.822;23.564;2023-11-18T10:05:42;-11145.88;;;7.65;54.21
10145;BME280;5113;41.822;23.564;2023-11-18T10:08:51;-11141.09;;;7.48;54.59
10145;BME280;5113;41.822;23.564;2023-11-18T10:11:58;-11145.31;;;7.63;53.72
10145;BME280;5113;41.822;23.564;2023-11-18T10:15:13;-11155.44;;;8.00;53.62
10145;BME280;5113;41.822;23.564;2023-11-18T10:18:24;-11146.28;;;7.67;53.24
10145;BME280;5113;41.822;23.564;2023-11-18T10:21:34;-11139.41;;;7.42;53.99
10145;BME280;5113;41.822;23.564;2023-11-18T10:24:45;-11143.06;;;7.55;53.02
10145;BME280;5113;41.822;23.564;2023-11-18T10:27:52;-11134.22;;;7.23;53.15
10145;BME280;5113;41.822;23.564;2023-11-18T10:31:02;-11134.06;;;7.22;53.20
10145;BME280;5113;41.822;23.564;2023-11-18T10:34:12;-11127.63;;;6.99;53.88
10145;BME280;5113;41.822;23.564;2023-11-18T10:37:23;-11141.81;;;7.50;53.27
10145;BME280;5113;41.822;23.564;2023-11-18T10:40:31;-11115.41;;;6.55;54.10
10145;BME280;5113;41.822;23.564;2023-11-18T10:43:41;-11093.91;;;5.77;55.68
10145;BME280;5113;41.822;23.564;2023-11-18T10:46:51;-11136.88;;;7.33;53.27
10145;BME280;5113;41.822;23.564;2023-11-18T10:50:00;-11137.44;;;7.35;54.09
10145;BME280;5113;41.822;23.564;2023-11-18T10:53:08;-11135.34;;;7.27;54.07
10145;BME280;5113;41.822;23.564;2023-11-18T10:56:19;-11127.06;;;6.97;54.92
10145;BME280;5113;41.822;23.564;2023-11-18T10:59:32;-11127.91;;;7.00;54.06
10145;BME280;5113;41.822;23.564;2023-11-18T11:02:38;-11133.50;;;7.20;54.65
10145;BME280;5113;41.822;23.564;2023-11-18T11:05:48;-11121.28;;;6.76;55.61
10145;BME280;5113;41.822;23.564;2023-11-18T11:08:54;-11125.09;;;6.90;55.61
10145;BME280;5113;41.822;23.564;2023-11-18T11:12:10;-11129.31;;;7.05;55.21
10145;BME280;5113;41.822;23.564;2023-11-18T11:15:23;-11124.53;;;6.88;54.61
10145;BME280;5113;41.822;23.564;2023-11-18T11:18:34;-11124.81;;;6.89;54.54
10145;BME280;5113;41.822;23.564;2023-11-18T11:21:54;-11124.66;;;6.88;54.59
10145;BME280;5113;41.822;23.564;2023-11-18T11:25:09;-11116.38;;;6.58;55.07
10145;BME280;5113;41.822;23.564;2023-11-18T11:28:34;-11113.72;;;6.49;54.89
10145;BME280;5113;41.822;23.564;2023-11-18T11:31:49;-11122.84;;;6.82;54.22
10145;BME280;5113;41.822;23.564;2023-11-18T11:35:01;-11135.63;;;7.28;53.82
10145;BME280;5113;41.822;23.564;2023-11-18T11:38:15;-11127.06;;;6.97;54.03
10145;BME280;5113;41.822;23.564;2023-11-18T11:41:24;-11129.16;;;7.05;54.50
10145;BME280;5113;41.822;23.564;2023-11-18T11:44:32;-11122.69;;;6.81;55.34
10145;BME280;5113;41.822;23.564;2023-11-18T11:47:48;-11117.22;;;6.61;54.89
10145;BME280;5113;41.822;23.564;2023-11-18T11:51:03;-11094.47;;;5.79;55.84
10145;BME280;5113;41.822;23.564;2023-11-18T11:54:26;-11109.91;;;6.35;55.44
10145;BME280;5113;41.822;23.564;2023-11-18T11:57:34;-11130.13;;;7.08;55.29
10145;BME280;5113;41.822;23.564;2023-11-18T12:00:44;-11105.28;;;6.18;55.72
10145;BME280;5113;41.822;23.564;2023-11-18T12:03:52;-11106.56;;;6.23;56.14
10145;BME280;5113;41.822;23.564;2023-11-18T12:07:05;-11109.06;;;6.32;56.14
10145;BME280;5113;41.822;23.564;2023-11-18T12:10:32;-11111.19;;;6.40;56.69
10145;BME280;5113;41.822;23.564;2023-11-18T12:13:40;-11098.41;;;5.93;58.49
10145;BME280;5113;41.822;23.564;2023-11-18T12:17:14;-11091.94;;;5.70;57.98
10145;BME280;5113;41.822;23.564;2023-11-18T12:20:39;-11096.00;;;5.85;58.21
10145;BME280;5113;41.822;23.564;2023-11-18T12:27:43;-11114.69;;;6.52;56.53
10145;BME280;5113;41.822;23.564;2023-11-18T12:30:57;-11105.56;;;6.19;57.67
10145;BME280;5113;41.822;23.564;2023-11-18T12:34:12;-11103.75;;;6.13;56.92
10145;BME280;5113;41.822;23.564;2023-11-18T12:37:45;-11102.47;;;6.08;57.91
10145;BME280;5113;41.822;23.564;2023-11-18T12:40:59;-11104.59;;;6.16;58.09
10145;BME280;5113;41.822;23.564;2023-11-18T12:44:22;-11099.94;;;5.99;57.53
10145;BME280;5113;41.822;23.564;2023-11-18T12:47:38;-11095.31;;;5.82;58.81
10145;BME280;5113;41.822;23.564;2023-11-18T12:50:46;-11091.25;;;5.68;58.82
10145;BME280;5113;41.822;23.564;2023-11-18T12:53:52;-11093.34;;;5.75;59.19
10145;BME280;5113;41.822;23.564;2023-11-18T12:57:00;-11111.31;;;6.40;58.56
10145;BME280;5113;41.822;23.564;2023-11-18T13:00:12;-11109.34;;;6.33;59.21
10145;BME280;5113;41.822;23.564;2023-11-18T13:03:21;-11090.41;;;5.64;59.77
10145;BME280;5113;41.822;23.564;2023-11-18T13:06:28;-11086.19;;;5.49;59.96
10145;BME280;5113;41.822;23.564;2023-11-18T13:09:35;-11089.69;;;5.62;59.98
10145;BME280;5113;41.822;23.564;2023-11-18T13:12:44;-11082.81;;;5.37;60.91
10145;BME280;5113;41.822;23.564;2023-11-18T13:15:54;-11078.47;;;5.21;61.32
10145;BME280;5113;41.822;23.564;2023-11-18T13:19:00;-11080.44;;;5.28;61.55
10145;BME280;5113;41.822;23.564;2023-11-18T13:22:11;-11094.59;;;5.80;61.00
10145;BME280;5113;41.822;23.564;2023-11-18T13:25:19;-11081.00;;;5.30;61.96
10145;BME280;5113;41.822;23.564;2023-11-18T13:28:26;-11095.03;;;5.81;60.93
10145;BME280;5113;41.822;23.564;2023-11-18T13:31:35;-11079.31;;;5.24;62.13
10145;BME280;5113;41.822;23.564;2023-11-18T13:34:42;-11084.50;;;5.43;62.30
10145;BME280;5113;41.822;23.564;2023-11-18T13:37:48;-11076.22;;;5.13;62.51
10145;BME280;5113;41.822;23.564;2023-11-18T13:40:56;-11088.28;;;5.57;61.59
10145;BME280;5113;41.822;23.564;2023-11-18T13:44:03;-11087.59;;;5.54;60.83
10145;BME280;5113;41.822;23.564;2023-11-18T13:47:12;-11075.25;;;5.10;61.90
10145;BME280;5113;41.822;23.564;2023-11-18T13:50:18;-11080.72;;;5.29;62.11
10145;BME280;5113;41.822;23.564;2023-11-18T13:53:25;-11080.44;;;5.28;62.06
10145;BME280;5113;41.822;23.564;2023-11-18T13:56:32;-11068.06;;;4.84;62.76
10145;BME280;5113;41.822;23.564;2023-11-18T13:59:39;-11074.25;;;5.06;61.55
10145;BME280;5113;41.822;23.564;2023-11-18T14:02:51;-11072.00;;;4.98;62.48
10145;BME280;5113;41.822;23.564;2023-11-18T14:05:59;-11074.81;;;5.08;62.22
10145;BME280;5113;41.822;23.564;2023-11-18T14:09:07;-11073.69;;;5.04;62.50
10145;BME280;5113;41.822;23.564;2023-11-18T14:12:16;-11081.84;;;5.34;63.33
10145;BME280;5113;41.822;23.564;2023-11-18T14:15:22;-11072.56;;;5.00;62.52
10145;BME280;5113;41.822;23.564;2023-11-18T14:18:31;-11074.41;;;5.07;62.55
10145;BME280;5113;41.822;23.564;2023-11-18T14:21:37;-11077.06;;;5.16;62.62
10145;BME280;5113;41.822;23.564;2023-11-18T14:24:44;-11064.84;;;4.72;63.53
10145;BME280;5113;41.822;23.564;2023-11-18T14:27:51;-11072.84;;;5.01;63.22
10145;BME280;5113;41.822;23.564;2023-11-18T14:30:58;-11064.72;;;4.72;63.44
10145;BME280;5113;41.822;23.564;2023-11-18T14:34:06;-11067.09;;;4.80;62.94
10145;BME280;5113;41.822;23.564;2023-11-18T14:37:15;-11068.22;;;4.84;63.25
10145;BME280;5113;41.822;23.564;2023-11-18T14:40:24;-11068.06;;;4.84;63.57
10145;BME280;5113;41.822;23.564;2023-11-18T14:43:33;-11061.75;;;4.61;63.53
10145;BME280;5113;41.822;23.564;2023-11-18T14:46:39;-11065.97;;;4.76;63.09
10145;BME280;5113;41.822;23.564;2023-11-18T14:49:47;-11082.69;;;5.37;63.38
10145;BME280;5113;41.822;23.564;2023-11-18T14:52:54;-11066.13;;;4.77;63.93
10145;BME280;5113;41.822;23.564;2023-11-18T14:56:06;-11059.53;;;4.53;64.27
10145;BME280;5113;41.822;23.564;2023-11-18T14:59:13;-11063.16;;;4.66;64.48
10145;BME280;5113;41.822;23.564;2023-11-18T15:02:20;-11062.75;;;4.64;64.79
10145;BME280;5113;41.822;23.564;2023-11-18T15:05:30;-11064.72;;;4.72;65.48
10145;BME280;5113;41.822;23.564;2023-11-18T15:08:36;-11061.34;;;4.59;65.67
10145;BME280;5113;41.822;23.564;2023-11-18T15:11:49;-11056.72;;;4.43;66.72
10145;BME280;5113;41.822;23.564;2023-11-18T15:14:58;-11054.19;;;4.34;67.87
10145;BME280;5113;41.822;23.564;2023-11-18T15:18:05;-11055.16;;;4.37;68.25
10145;BME280;5113;41.822;23.564;2023-11-18T15:21:15;-11061.63;;;4.60;68.91
10145;BME280;5113;41.822;23.564;2023-11-18T15:24:22;-11047.59;;;4.10;70.20
10145;BME280;5113;41.822;23.564;2023-11-18T15:27:29;-11039.16;;;3.79;71.00
10145;BME280;5113;41.822;23.564;2023-11-18T15:30:38;-11047.72;;;4.10;71.43
10145;BME280;5113;41.822;23.564;2023-11-18T15:33:45;-11043.09;;;3.93;72.57
10145;BME280;5113;41.822;23.564;2023-11-18T15:36:53;-11043.66;;;3.95;73.18
10145;BME280;5113;41.822;23.564;2023-11-18T15:40:00;-11047.03;;;4.08;72.64
10145;BME280;5113;41.822;23.564;2023-11-18T15:43:06;-11049.56;;;4.17;72.61
10145;BME280;5113;41.822;23.564;2023-11-18T15:46:19;-11039.16;;;3.79;73.36
10145;BME280;5113;41.822;23.564;2023-11-18T15:49:25;-11052.63;;;4.28;72.61
10145;BME280;5113;41.822;23.564;2023-11-18T15:52:34;-11055.88;;;4.40;72.17
10145;BME280;5113;41.822;23.564;2023-11-18T15:55:41;-11042.41;;;3.91;71.11
10145;BME280;5113;41.822;23.564;2023-11-18T15:58:49;-11053.19;;;4.30;70.09
10145;BME280;5113;41.822;23.564;2023-11-18T16:01:55;-11045.34;;;4.02;69.69
10145;BME280;5113;41.822;23.564;2023-11-18T16:05:02;-11052.78;;;4.28;69.53
10145;BME280;5113;41.822;23.564;2023-11-18T16:08:11;-11054.47;;;4.35;68.81
10145;BME280;5113;41.822;23.564;2023-11-18T16:11:19;-11055.16;;;4.37;68.73
10145;BME280;5113;41.822;23.564;2023-11-18T16:14:25;-11062.19;;;4.62;68.78
10145;BME280;5113;41.822;23.564;2023-11-18T16:17:32;-11047.03;;;4.08;68.44
10145;BME280;5113;41.822;23.564;2023-11-18T16:20:38;-11055.16;;;4.37;67.92
10145;BME280;5113;41.822;23.564;2023-11-18T16:23:46;-11044.22;;;3.97;68.03
10145;BME280;5113;41.822;23.564;2023-11-18T16:26:53;-11046.88;;;4.07;67.39
10145;BME280;5113;41.822;23.564;2023-11-18T16:29:59;-11055.59;;;4.39;66.81
10145;BME280;5113;41.822;23.564;2023-11-18T16:33:06;-11060.22;;;4.55;66.12
10145;BME280;5113;41.822;23.564;2023-11-18T16:36:20;-11055.72;;;4.39;67.34
10145;BME280;5113;41.822;23.564;2023-11-18T16:39:29;-11050.41;;;4.20;67.66
10145;BME280;5113;41.822;23.564;2023-11-18T16:42:36;-11057.56;;;4.46;67.08
10145;BME280;5113;41.822;23.564;2023-11-18T16:45:43;-11050.97;;;4.22;67.39